createdAt,value
2019-02-02T00:02:25.618Z,0.80
2019-02-02T00:04:56.130Z,0.80
2019-02-02T00:07:26.822Z,0.80
2019-02-02T00:09:57.340Z,0.80
2019-02-02T00:12:27.904Z,0.80
2019-02-02T00:14:58.397Z,0.80
2019-02-02T00:17:29.040Z,0.80
2019-02-02T00:19:59.667Z,0.80
2019-02-02T00:22:30.171Z,0.80
2019-02-02T00:25:00.687Z,0.80
2019-02-02T00:27:41.044Z,0.80
2019-02-02T00:30:03.684Z,0.80
2019-02-02T00:32:34.205Z,0.90
2019-02-02T00:35:05.179Z,0.80
2019-02-02T00:37:35.768Z,0.90
2019-02-02T00:40:07.931Z,0.90
2019-02-02T00:42:38.479Z,0.90
2019-02-02T00:45:09.878Z,0.90
2019-02-02T00:47:40.439Z,0.90
2019-02-02T00:50:11.975Z,0.90
2019-02-02T00:52:42.555Z,0.90
2019-02-02T00:55:13.433Z,0.90
2019-02-02T00:57:53.144Z,0.90
2019-02-02T01:00:17.164Z,0.90
2019-02-02T01:02:47.835Z,0.90
2019-02-02T01:05:19.320Z,0.90
2019-02-02T01:07:50.201Z,1.00
2019-02-02T01:10:27.784Z,0.90
2019-02-02T01:12:58.478Z,1.00
2019-02-02T01:15:29.205Z,1.00
2019-02-02T01:17:59.704Z,1.00
2019-02-02T01:20:31.423Z,1.00
2019-02-02T01:23:02.152Z,1.00
2019-02-02T01:25:32.777Z,1.00
2019-02-02T01:28:05.440Z,1.00
2019-02-02T01:30:35.578Z,1.00
2019-02-02T01:33:06.366Z,1.00
2019-02-02T01:35:37.038Z,1.00
2019-02-02T01:38:07.575Z,1.00
2019-02-02T01:40:38.176Z,1.00
2019-02-02T01:43:08.861Z,1.00
2019-02-02T01:45:39.522Z,1.00
2019-02-02T01:48:10.045Z,1.00
2019-02-02T01:50:40.671Z,1.00
2019-02-02T01:53:11.230Z,1.00
2019-02-02T01:55:41.809Z,1.00
2019-02-02T01:58:16.922Z,1.00
2019-02-02T02:00:44.605Z,1.00
2019-02-02T02:03:15.184Z,1.00
2019-02-02T02:05:45.733Z,1.00
2019-02-02T02:08:16.265Z,1.10
2019-02-02T02:10:46.826Z,1.10
2019-02-02T02:13:17.378Z,1.10
2019-02-02T02:15:47.885Z,1.10
2019-02-02T02:18:18.474Z,1.10
2019-02-02T02:20:49.023Z,1.10
2019-02-02T02:23:19.587Z,1.10
2019-02-02T02:25:50.154Z,1.10
2019-02-02T02:28:27.858Z,1.20
2019-02-02T02:30:52.992Z,1.20
2019-02-02T02:33:23.524Z,1.20
2019-02-02T02:35:54.167Z,1.20
2019-02-02T02:38:24.827Z,1.20
2019-02-02T02:40:55.494Z,1.30
2019-02-02T02:43:26.023Z,1.30
2019-02-02T02:45:56.598Z,1.30
2019-02-02T02:48:27.151Z,1.30
2019-02-02T02:50:57.747Z,1.30
2019-02-02T02:53:28.295Z,1.30
2019-02-02T02:55:58.833Z,1.30
2019-02-02T02:58:40.737Z,1.30
2019-02-02T03:01:01.667Z,1.30
2019-02-02T03:03:32.169Z,1.30
2019-02-02T03:06:02.727Z,1.30
2019-02-02T03:08:33.271Z,1.30
2019-02-02T03:11:03.808Z,1.40
2019-02-02T03:13:34.398Z,1.30
2019-02-02T03:16:04.999Z,1.30
2019-02-02T03:18:35.546Z,1.30
2019-02-02T03:21:06.073Z,1.40
2019-02-02T03:23:36.645Z,1.40
2019-02-02T03:26:07.321Z,1.40
2019-02-02T03:28:37.836Z,1.40
2019-02-02T03:31:08.378Z,1.40
2019-02-02T03:33:38.928Z,1.40
2019-02-02T03:36:09.508Z,1.40
2019-02-02T03:38:40.044Z,1.40
2019-02-02T03:41:10.603Z,1.40
2019-02-02T03:43:41.103Z,1.40
2019-02-02T03:46:11.695Z,1.40
2019-02-02T03:48:42.322Z,1.40
2019-02-02T03:51:12.827Z,1.40
2019-02-02T03:53:43.428Z,1.40
2019-02-02T03:56:13.992Z,1.50
2019-02-02T03:58:44.672Z,1.50
2019-02-02T04:01:15.194Z,1.50
2019-02-02T04:03:45.951Z,1.50
2019-02-02T04:06:16.524Z,1.50
2019-02-02T04:08:47.026Z,1.50
2019-02-02T04:11:17.549Z,1.50
2019-02-02T04:13:48.078Z,1.50
2019-02-02T04:16:18.640Z,1.50
2019-02-02T04:18:49.148Z,1.50
2019-02-02T04:21:19.704Z,1.50
2019-02-02T04:23:50.216Z,1.50
2019-02-02T04:26:20.806Z,1.60
2019-02-02T04:28:51.335Z,1.60
2019-02-02T04:31:21.900Z,1.60
2019-02-02T04:33:52.428Z,1.60
2019-02-02T04:36:22.976Z,1.60
2019-02-02T04:38:53.583Z,1.60
2019-02-02T04:41:24.137Z,1.60
2019-02-02T04:43:54.683Z,1.60
2019-02-02T04:46:25.261Z,1.60
2019-02-02T04:48:55.801Z,1.70
2019-02-02T04:51:26.324Z,1.70
2019-02-02T04:53:58.129Z,1.70
2019-02-02T04:56:28.760Z,1.70
2019-02-02T04:58:59.307Z,1.70
2019-02-02T05:01:29.888Z,1.70
2019-02-02T05:04:00.455Z,1.70
2019-02-02T05:06:31.005Z,1.70
2019-02-02T05:09:01.592Z,1.70
2019-02-02T05:11:32.088Z,1.70
2019-02-02T05:14:02.664Z,1.70
2019-02-02T05:16:33.250Z,1.70
2019-02-02T05:19:03.803Z,1.70
2019-02-02T05:21:34.354Z,1.70
2019-02-02T05:24:04.922Z,1.70
2019-02-02T05:26:35.479Z,1.70
2019-02-02T05:29:06.196Z,1.70
2019-02-02T05:31:36.751Z,1.70
2019-02-02T05:34:07.381Z,1.70
2019-02-02T05:36:37.967Z,1.70
2019-02-02T05:39:10.450Z,1.70
2019-02-02T05:41:41.026Z,1.70
2019-02-02T05:44:11.603Z,1.70
2019-02-02T05:46:42.177Z,1.70
2019-02-02T05:49:12.710Z,1.70
2019-02-02T05:51:43.258Z,1.70
2019-02-02T05:54:13.803Z,1.70
2019-02-02T05:56:44.346Z,1.70
2019-02-02T05:59:14.919Z,1.80
2019-02-02T06:01:45.452Z,1.80
2019-02-02T06:04:15.983Z,1.80
2019-02-02T06:06:46.528Z,1.70
2019-02-02T06:09:17.078Z,1.80
2019-02-02T06:11:47.645Z,1.70
2019-02-02T06:14:18.249Z,1.80
2019-02-02T06:16:48.763Z,1.80
2019-02-02T06:19:19.349Z,1.80
2019-02-02T06:21:49.859Z,1.80
2019-02-02T06:24:20.399Z,1.80
2019-02-02T06:26:51.051Z,1.80
2019-02-02T06:29:21.616Z,1.80
2019-02-02T06:31:52.190Z,1.80
2019-02-02T06:34:22.776Z,1.80
2019-02-02T06:36:53.409Z,1.80
2019-02-02T06:39:23.940Z,1.80
2019-02-02T06:41:54.494Z,1.80
2019-02-02T06:44:25.027Z,1.80
2019-02-02T06:46:55.677Z,1.80
2019-02-02T06:49:26.201Z,1.80
2019-02-02T06:51:56.720Z,1.80
2019-02-02T06:54:31.688Z,1.80
2019-02-02T06:57:00.793Z,1.80
2019-02-02T06:59:31.317Z,1.80
2019-02-02T07:02:01.893Z,1.90
2019-02-02T07:04:32.417Z,1.90
2019-02-02T07:07:02.982Z,1.80
2019-02-02T07:09:33.551Z,1.90
2019-02-02T07:12:04.146Z,1.90
2019-02-02T07:14:34.679Z,1.90
2019-02-02T07:17:05.357Z,1.90
2019-02-02T07:19:35.890Z,1.90
2019-02-02T07:22:06.454Z,1.90
2019-02-02T07:24:36.998Z,1.90
2019-02-02T07:27:07.601Z,2.00
2019-02-02T07:29:38.125Z,1.90
2019-02-02T07:32:08.652Z,1.90
2019-02-02T07:34:39.183Z,1.90
2019-02-02T07:37:09.675Z,1.90
2019-02-02T07:39:40.301Z,1.90
2019-02-02T07:42:10.849Z,1.90
2019-02-02T07:44:41.579Z,1.90
2019-02-02T07:47:12.142Z,1.90
2019-02-02T07:49:42.740Z,1.90
2019-02-02T07:52:13.416Z,1.90
2019-02-02T07:54:49.641Z,2.00
2019-02-02T07:57:20.174Z,1.90
2019-02-02T07:59:50.730Z,1.90
2019-02-02T08:02:21.393Z,2.00
2019-02-02T08:04:54.599Z,2.00
2019-02-02T08:07:25.089Z,2.00
2019-02-02T08:09:55.644Z,2.00
2019-02-02T08:12:26.177Z,2.00
2019-02-02T08:14:59.635Z,2.00
2019-02-02T08:17:32.333Z,2.00
2019-02-02T08:20:02.494Z,2.00
2019-02-02T08:22:33.103Z,2.00
2019-02-02T08:25:05.115Z,2.00
2019-02-02T08:27:35.682Z,2.00
2019-02-02T08:30:11.812Z,2.00
2019-02-02T08:32:42.471Z,1.90
2019-02-02T08:35:13.132Z,2.00
2019-02-02T08:37:43.675Z,2.00
2019-02-02T08:40:16.187Z,2.00
2019-02-02T08:42:49.089Z,2.00
2019-02-02T08:45:19.920Z,2.00
2019-02-02T08:47:50.482Z,2.00
2019-02-02T08:50:36.363Z,2.00
2019-02-02T08:53:07.786Z,2.00
2019-02-02T08:55:38.345Z,2.10
2019-02-02T08:58:08.960Z,2.10
2019-02-02T09:00:39.625Z,2.10
2019-02-02T09:03:10.210Z,2.10
2019-02-02T09:05:40.850Z,2.10
2019-02-02T09:08:24.776Z,2.10
2019-02-02T09:10:55.434Z,2.00
2019-02-02T09:13:26.313Z,2.10
2019-02-02T09:15:56.935Z,2.10
2019-02-02T09:18:27.457Z,2.10
2019-02-02T09:20:58.030Z,2.10
2019-02-02T09:23:28.580Z,2.10
2019-02-02T09:25:59.116Z,2.10
2019-02-02T09:28:29.751Z,2.10
2019-02-02T09:31:00.508Z,2.10
2019-02-02T09:33:32.062Z,2.10
2019-02-02T09:36:02.695Z,2.10
2019-02-02T09:38:33.231Z,2.10
2019-02-02T09:41:03.847Z,2.20
2019-02-02T09:43:34.409Z,2.20
2019-02-02T09:46:05.029Z,2.20
2019-02-02T09:48:35.600Z,2.20
2019-02-02T09:51:06.865Z,2.20
2019-02-02T09:53:37.437Z,2.20
2019-02-02T09:56:08.231Z,2.30
2019-02-02T09:58:38.851Z,2.30
2019-02-02T10:01:09.433Z,2.30
2019-02-02T10:03:40.000Z,2.30
2019-02-02T10:06:10.596Z,2.30
2019-02-02T10:08:41.131Z,2.30
2019-02-02T10:11:11.777Z,2.30
2019-02-02T10:13:42.432Z,2.30
2019-02-02T10:16:13.070Z,2.40
2019-02-02T10:18:44.713Z,2.40
2019-02-02T10:21:15.316Z,2.40
2019-02-02T10:23:45.970Z,2.40
2019-02-02T10:26:16.549Z,2.50
2019-02-02T10:28:47.180Z,2.50
2019-02-02T10:31:17.747Z,2.60
2019-02-02T10:33:48.378Z,2.60
2019-02-02T10:36:20.129Z,2.60
2019-02-02T10:38:51.058Z,2.60
2019-02-02T10:41:21.653Z,2.60
2019-02-02T10:43:52.187Z,2.60
2019-02-02T10:46:22.948Z,2.60
2019-02-02T10:48:53.623Z,2.70
2019-02-02T10:51:25.530Z,2.60
2019-02-02T10:53:56.091Z,2.70
2019-02-02T10:56:26.672Z,2.70
2019-02-02T10:58:57.215Z,2.70
2019-02-02T11:01:27.726Z,2.70
2019-02-02T11:03:58.244Z,2.70
2019-02-02T11:06:30.826Z,2.60
2019-02-02T11:09:01.450Z,2.60
2019-02-02T11:11:32.165Z,2.60
2019-02-02T11:14:02.714Z,2.60
2019-02-02T11:16:33.348Z,2.70
2019-02-02T11:19:03.812Z,2.70
2019-02-02T11:21:34.393Z,2.70
2019-02-02T11:24:05.221Z,2.70
2019-02-02T11:26:35.842Z,2.70
2019-02-02T11:29:06.454Z,2.70
2019-02-02T11:31:37.031Z,2.70
2019-02-02T11:34:07.535Z,2.70
2019-02-02T11:36:38.094Z,2.70
2019-02-02T11:39:09.483Z,2.70
2019-02-02T11:41:40.019Z,2.80
2019-02-02T11:44:10.590Z,2.70
2019-02-02T11:46:41.097Z,2.70
2019-02-02T11:49:11.664Z,2.70
2019-02-02T11:51:42.223Z,2.70
2019-02-02T11:54:12.774Z,2.70
2019-02-02T11:56:43.314Z,2.70
2019-02-02T11:59:14.104Z,2.70
2019-02-02T12:01:44.671Z,2.70
2019-02-02T12:04:15.204Z,2.60
2019-02-02T12:06:45.753Z,2.60
2019-02-02T12:09:16.303Z,2.60
2019-02-02T12:11:46.822Z,2.60
2019-02-02T12:14:17.375Z,2.60
2019-02-02T12:16:47.875Z,2.60
2019-02-02T12:19:18.453Z,2.60
2019-02-02T12:21:48.930Z,2.60
2019-02-02T12:24:19.445Z,2.60
2019-02-02T12:26:49.937Z,2.60
2019-02-02T12:29:20.505Z,2.60
2019-02-02T12:31:51.068Z,2.60
2019-02-02T12:34:21.616Z,2.60
2019-02-02T12:36:52.154Z,2.60
2019-02-02T12:39:22.754Z,2.60
2019-02-02T12:41:53.388Z,2.60
2019-02-02T12:44:23.954Z,2.60
2019-02-02T12:46:54.606Z,2.50
2019-02-02T12:49:25.131Z,2.50
2019-02-02T12:51:55.790Z,2.50
2019-02-02T12:54:26.260Z,2.50
2019-02-02T12:56:56.805Z,2.50
2019-02-02T12:59:27.307Z,2.40
2019-02-02T13:01:57.830Z,2.40
2019-02-02T13:04:28.341Z,2.40
2019-02-02T13:06:58.833Z,2.40
2019-02-02T13:09:29.342Z,2.40
2019-02-02T13:11:59.874Z,2.40
2019-02-02T13:14:30.420Z,2.40
2019-02-02T13:17:00.897Z,2.40
2019-02-02T13:19:31.398Z,2.40
2019-02-02T13:22:01.905Z,2.40
2019-02-02T13:24:32.394Z,2.40
2019-02-02T13:27:02.963Z,2.40
2019-02-02T13:29:33.660Z,2.40
2019-02-02T13:32:04.190Z,2.40
2019-02-02T13:34:34.731Z,2.40
2019-02-02T13:37:05.400Z,2.40
2019-02-02T13:39:35.954Z,2.40
2019-02-02T13:42:09.035Z,2.40
2019-02-02T13:44:39.570Z,2.40
2019-02-02T13:47:10.157Z,2.40
2019-02-02T13:49:40.788Z,2.40
2019-02-02T13:52:11.335Z,2.30
2019-02-02T13:54:41.902Z,2.30
2019-02-02T13:57:21.814Z,2.30
2019-02-02T13:59:48.098Z,2.30
2019-02-02T14:02:20.522Z,2.30
2019-02-02T14:04:51.198Z,2.30
2019-02-02T14:07:21.971Z,2.30
2019-02-02T14:10:00.848Z,2.30
2019-02-02T14:12:37.248Z,2.30
2019-02-02T14:15:09.631Z,2.30
2019-02-02T14:17:40.308Z,2.30
2019-02-02T14:20:11.937Z,2.30
2019-02-02T14:22:42.640Z,2.30
2019-02-02T14:25:13.866Z,2.30
2019-02-02T14:27:44.666Z,2.30
2019-02-02T14:31:08.907Z,2.30
2019-02-02T14:33:39.601Z,2.20
2019-02-02T14:36:10.269Z,2.20
2019-02-02T14:38:44.029Z,2.30
2019-02-02T14:41:14.767Z,2.20
2019-02-02T14:43:45.358Z,2.20
2019-02-02T14:46:16.467Z,2.30
2019-02-02T14:48:47.275Z,2.30
2019-02-02T14:51:18.012Z,2.20
2019-02-02T14:53:49.098Z,2.20
2019-02-02T14:56:22.366Z,2.20
2019-02-02T14:58:55.162Z,2.20
2019-02-02T15:01:26.124Z,2.30
2019-02-02T15:04:07.756Z,2.30
2019-02-02T15:06:30.105Z,2.20
2019-02-02T15:09:01.023Z,2.20
2019-02-02T15:11:31.973Z,2.30
2019-02-02T15:14:02.844Z,2.30
2019-02-02T15:16:33.902Z,2.30
2019-02-02T15:19:04.857Z,2.30
2019-02-02T15:21:35.625Z,2.30
2019-02-02T15:24:06.366Z,2.30
2019-02-02T15:26:37.062Z,2.20
2019-02-02T15:29:07.794Z,2.20
2019-02-02T15:31:38.576Z,2.20
2019-02-02T15:34:09.385Z,2.20
2019-02-02T15:37:09.067Z,2.20
2019-02-02T15:39:39.788Z,2.20
2019-02-02T15:42:10.673Z,2.20
2019-02-02T15:44:41.485Z,2.20
2019-02-02T15:47:12.408Z,2.20
2019-02-02T15:49:46.000Z,2.10
2019-02-02T15:52:30.731Z,2.10
2019-02-02T15:58:24.514Z,2.10
2019-02-02T16:00:55.190Z,2.10
2019-02-02T16:03:27.872Z,2.10
2019-02-02T16:06:03.805Z,2.00
2019-02-02T16:08:34.716Z,2.10
2019-02-02T16:16:42.387Z,2.00
2019-02-02T16:19:17.389Z,2.10
2019-02-02T16:21:51.656Z,2.00
2019-02-02T16:24:22.586Z,2.00
2019-02-02T16:26:53.945Z,2.00
2019-02-02T16:29:25.062Z,2.00
2019-02-02T16:32:00.046Z,2.00
2019-02-02T16:34:36.609Z,2.00
2019-02-02T16:37:14.836Z,2.00
2019-02-02T16:39:48.678Z,2.00
2019-02-02T16:42:28.553Z,1.90
2019-02-02T16:45:26.297Z,1.90
2019-02-02T16:47:41.610Z,1.90
2019-02-02T16:50:15.569Z,1.90
2019-02-02T16:52:47.553Z,1.90
2019-02-02T16:55:18.362Z,1.90
2019-02-02T16:57:49.138Z,1.90
2019-02-02T17:00:42.374Z,1.90
2019-02-02T17:03:16.012Z,1.90
2019-02-02T17:05:48.337Z,1.90
2019-02-02T17:08:28.253Z,2.00
2019-02-02T17:11:01.253Z,1.90
2019-02-02T17:13:31.949Z,2.00
2019-02-02T17:16:02.549Z,2.00
2019-02-02T17:18:33.180Z,1.90
2019-02-02T17:21:03.994Z,1.90
2019-02-02T17:23:34.749Z,1.90
2019-02-02T17:26:06.653Z,2.00
2019-02-02T17:28:37.286Z,1.90
2019-02-02T17:31:11.127Z,2.00
2019-02-02T17:33:40.471Z,2.00
2019-02-02T17:36:12.072Z,2.00
2019-02-02T17:38:45.840Z,2.00
2019-02-02T17:41:25.377Z,2.00
2019-02-02T17:44:00.075Z,1.90
2019-02-02T17:46:30.637Z,1.90
2019-02-02T17:49:01.196Z,1.90
2019-02-02T17:51:31.916Z,1.90
2019-02-02T17:54:02.498Z,1.90
2019-02-02T17:56:33.166Z,1.90
2019-02-02T17:59:03.780Z,1.90
2019-02-02T18:01:34.374Z,1.90
2019-02-02T18:04:05.318Z,1.90
2019-02-02T18:06:38.723Z,1.90
2019-02-02T18:09:26.284Z,1.90
2019-02-02T18:11:57.212Z,1.90
2019-02-02T18:14:28.084Z,1.90
2019-02-02T18:16:58.906Z,1.90
2019-02-02T18:19:29.790Z,1.90
2019-02-02T18:22:00.437Z,1.90
2019-02-02T18:24:47.589Z,1.90
2019-02-02T18:27:19.356Z,1.90
2019-02-02T18:29:50.106Z,1.90
2019-02-02T18:32:20.824Z,1.90
2019-02-02T18:34:51.738Z,1.90
2019-02-02T18:37:25.682Z,1.80
2019-02-02T18:39:56.260Z,1.90
2019-02-02T18:42:27.040Z,1.90
2019-02-02T18:44:57.928Z,1.90
2019-02-02T18:47:29.020Z,1.90
2019-02-02T18:50:00.029Z,1.90
2019-02-02T18:52:30.737Z,1.90
2019-02-02T18:55:04.544Z,1.90
2019-02-02T18:57:35.275Z,1.90
2019-02-02T19:00:08.841Z,1.90
2019-02-02T19:03:03.676Z,1.90
2019-02-02T19:05:44.129Z,1.80
2019-02-02T19:08:17.850Z,1.90
2019-02-02T19:10:49.484Z,1.90
2019-02-02T19:13:20.378Z,1.90
2019-02-02T19:16:14.672Z,1.90
2019-02-02T19:21:20.564Z,1.90
2019-02-02T19:23:51.258Z,1.90
2019-02-02T19:26:23.048Z,1.90
2019-02-02T19:28:55.863Z,1.90
2019-02-02T19:31:41.221Z,1.90
2019-02-02T19:34:18.183Z,1.90
2019-02-02T19:36:47.779Z,1.80
2019-02-02T19:39:21.655Z,1.80
2019-02-02T19:41:52.297Z,1.80
2019-02-02T19:44:23.107Z,1.80
2019-02-02T19:48:50.314Z,1.80
2019-02-02T19:57:20.450Z,1.80
2019-02-02T20:15:26.857Z,1.80
2019-02-02T20:23:50.354Z,1.70
2019-02-02T20:26:47.562Z,1.70
2019-02-02T20:29:34.509Z,1.70
2019-02-02T20:37:22.243Z,1.70
2019-02-02T21:36:34.453Z,1.90
2019-02-02T21:51:49.313Z,1.90
2019-02-02T21:58:34.377Z,1.90
2019-02-02T22:01:23.674Z,1.90
2019-02-02T22:14:05.464Z,1.90
2019-02-02T22:17:18.897Z,1.90
2019-02-02T22:20:58.053Z,1.90
2019-02-02T22:23:54.688Z,1.90
2019-02-02T22:26:48.724Z,1.90
2019-02-02T22:29:30.730Z,1.90
2019-02-02T22:32:09.315Z,1.90
2019-02-02T22:35:02.979Z,1.90
2019-02-02T22:37:53.958Z,1.90
2019-02-02T22:40:32.679Z,1.90
2019-02-02T22:43:24.659Z,1.90
2019-02-02T22:46:35.863Z,1.90
2019-02-02T22:49:20.715Z,1.90
2019-02-02T22:52:09.613Z,1.90
2019-02-02T22:54:57.228Z,1.90
2019-02-02T22:57:45.563Z,1.90
2019-02-02T23:01:19.608Z,1.90
2019-02-02T23:04:49.388Z,1.90
2019-02-02T23:08:19.187Z,1.90
2019-02-02T23:11:46.598Z,1.90
2019-02-02T23:15:03.486Z,1.90
2019-02-02T23:18:03.085Z,1.90
2019-02-02T23:20:52.833Z,1.90
2019-02-02T23:23:29.925Z,1.90
2019-02-02T23:26:10.776Z,1.80
2019-02-02T23:28:55.920Z,1.80
2019-02-02T23:31:30.369Z,1.80
2019-02-02T23:34:34.333Z,1.80
2019-02-02T23:37:08.237Z,1.80
2019-02-02T23:39:48.899Z,1.80
2019-02-02T23:42:18.853Z,1.80
2019-02-02T23:44:50.087Z,1.80
2019-02-02T23:47:29.264Z,1.80
2019-02-02T23:50:02.611Z,1.80
2019-02-02T23:52:42.573Z,1.80
2019-02-02T23:55:13.483Z,1.80
2019-02-02T23:57:48.992Z,1.80
